Andreas Maehle

Chefscout - FC Nordsjaelland
25 Nov 2027
Donnerstag
Verarbeitung

Persönlichkeit

Anpassungsfähigkeit (19) Ehrgeiz (10) Kontroverse (5) Loyalität (9) Druck (15) Professionalität (13) Fairness (18) Temperament (12)

Profil

Trainerstil Demokratisch
Lizenz Nationale A
Entschlossenheit 12
Menschenführung 12
Motivation 4
Disziplin 8
Arbeitszufriedenheit
100%
Ermüdung
0%
Rolle Chefscout
Gehalt 43.2K p/W
Vertrag 14.03.2030

Leistung

Verhalten Gut
Trainingseffektivität
56%
Spielerentwicklung
60%
Verletzungsprävention
25%
Taktische Umsetzung
65%

Letzte Ereignisse

Nahm an einer Scouting-Besprechung teil jetzt
Empfahl ein Transferziel jetzt
Nahm an einer Scouting-Besprechung teil jetzt
Empfahl ein Transferziel jetzt
Empfahl ein Transferziel jetzt
Empfahl ein Transferziel jetzt
Empfahl ein Transferziel jetzt
Empfahl ein Transferziel jetzt

Aktuell beobachtet

142
Spieler Verein Status Fähigkeit Vertrauen Beobachtet Zuletzt beobachtet Letzte Stimme
Bitello SC Freiburg Verhandlung 135 / 135 68% 1 01.06.2027 Befürworten
Facundo Torres LOSC Lille Verhandlung 134 / 134 67% 1 01.06.2027 Befürworten
Pedro de la Vega FC Dallas Verhandlung 133 / 134 66% 1 01.06.2027 Befürworten
Ernie Weaver AFC Wimbledon Aktiv 103 / 116 40% 2 30.05.2027 -
Tobias Slotsager Casertana Aktiv 109 / 116 40% 1 30.05.2027 -
Sabil Hansen Randers Aktiv 104 / 117 40% 1 30.05.2027 -
Juan Giménez Celta Aktiv 109 / 131 40% 2 29.05.2027 -
Jofre Torrents Ajax Aktiv 127 / 132 40% 5 29.05.2027 -
Leandro Martins Benfica Aktiv 100 / 95 40% 1 29.05.2027 -
Daniel Vernattus Metalist Aktiv 88 / 91 40% 3 28.05.2027 -
Samuel Lucero Defensa y Justicia Aktiv 122 / 118 40% 1 28.05.2027 -
Martim Cunha Porto Aktiv 111 / 108 40% 2 27.05.2027 -
Kazunari Kita Real Sociedad Aktiv 90 / 101 40% 1 27.05.2027 -
Christos Mouzakitis Hull City Aktiv 136 / 129 40% 4 25.05.2027 -
Daniel Kelly Oxford United Aktiv 114 / 127 40% 4 25.05.2027 -
Riley Owen Trento Aktiv 107 / 110 40% 4 24.05.2027 -
Pietro Reggiori Pro Patria Aktiv 102 / 100 40% 1 24.05.2027 -
Finn Jeltsch VfB Stuttgart Aktiv 147 / 149 40% 3 23.05.2027 Beobachten
Zaïd BafdilI Sporting CP Aktiv 85 / 99 40% 2 23.05.2027 -
Matías Gómez Granada Aktiv 118 / 126 40% 4 21.05.2027 -
Simone Kosijer Triestina Aktiv 92 / 110 40% 2 21.05.2027 -
Zane Albarus Cambridge United Aktiv 89 / 91 40% 2 19.05.2027 -
Davide Bartesaghi AC Milan Aktiv 133 / 128 40% 5 18.05.2027 -
Joel McGregor Swindon Town Aktiv 91 / 91 40% 2 18.05.2027 -
Ibrahim Maza Bayer Leverkusen Aktiv 140 / 153 40% 3 17.05.2027 -
Dylan Lawlor Cardiff City Aktiv 107 / 126 40% 2 16.05.2027 -
Finley McAllister Grimsby Town Aktiv 85 / 94 40% 1 14.05.2027 -
Percy Jali Free State Stars Aktiv 104 / 101 40% 2 13.05.2027 -
Jan Bürger Gillingham Aktiv 110 / 118 40% 3 07.05.2027 -
Hamish Douglas Grimsby Town Aktiv 102 / 92 40% 1 02.05.2027 -
Sascha Britschgi Padova Aktiv 109 / 126 40% 1 29.04.2027 -
Tiago Freitas Benfica Aktiv 110 / 117 40% 1 28.04.2027 -
Samuele di Benedetto Bari Aktiv 107 / 119 40% 1 27.04.2027 -
Josh Smith Accrington Stanley Aktiv 90 / 78 40% 1 25.04.2027 -
Gonçalo Oliveira Benfica Aktiv 116 / 124 40% 1 24.04.2027 -
Hlompho Lorch Ajax Cape Town Aktiv 90 / 96 40% 2 23.04.2027 -
Caleb Yirenkyi Coventry City Aktiv 131 / 146 40% 1 23.04.2027 -
Konstantin Tyukavin Inter Verhandlung 135 / 140 78% 1 01.01.2027 Befürworten
Nicolás Fernández Mercau Shakhtar Verhandlung 137 / 143 79% 1 01.01.2027 Befürworten
Nahuel Ulariaga Hapoel Beer Sheva Aktiv 110 / 115 40% 2 30.12.2026 -
Ruben van Bommel Ferencvaros Aktiv 133 / 137 40% 3 30.12.2026 -
Ilyas Ansah Hull City Aktiv 143 / 128 40% 1 30.12.2026 -
Matvey Kislyak CSKA Moscow Aktiv 134 / 143 40% 1 30.12.2026 -
Tyler Fredricson Oldham Athletic Aktiv 91 / 108 40% 1 30.12.2026 -
Mandla Mahlangu Ajax Cape Town Aktiv 105 / 107 40% 2 28.12.2026 -
Luis Vázquez Birmingham Aktiv 144 / 124 40% 2 28.12.2026 -
Rhian Brewster Oxford United Aktiv 123 / 112 40% 2 28.12.2026 -
Razvan Balasa Crvena Zvezda Aktiv 153 / 143 40% 3 27.12.2026 -
Edward Chilufya FC Midtjylland Aktiv 124 / 111 40% 4 26.12.2026 -
Aune Heggebø West Bromwich Albion Aktiv 133 / 122 40% 1 26.12.2026 Mehr Infos nötig
Mathias Jensen FC Midtjylland Aktiv 100 / 116 40% 2 25.12.2026 -
Owen Lunt Crewe Alexandra Aktiv 88 / 100 40% 1 25.12.2026 -
Richard Koné Queens Park Rangers Aktiv 132 / 114 40% 1 23.12.2026 -
Cameron Archer Southampton Aktiv 120 / 136 40% 1 23.12.2026 -
Yousef Salech Cardiff City Aktiv 118 / 120 40% 1 22.12.2026 -
Mohamed-Ali Cho Hull City Aktiv 139 / 126 40% 1 22.12.2026 -
Kornelius Hansen Aalborg Aktiv 108 / 106 40% 4 21.12.2026 -
Matthew Hoppe SonderjyskE Aktiv 112 / 113 40% 1 21.12.2026 -
Armando Broja Burnley Aktiv 134 / 125 40% 1 21.12.2026 -
Nóel Atli Anórsson Aalborg Aktiv 96 / 95 40% 3 20.12.2026 -
Tamerlan Musaev CSKA Moscow Aktiv 110 / 122 40% 3 18.12.2026 -
Lassina Traoré Shakhtar Aktiv 129 / 118 40% 6 17.12.2026 -
Zeki Amdouni Burnley Aktiv 143 / 127 40% 1 17.12.2026 -
Tom Cannon Sheffield United Aktiv 116 / 138 40% 1 17.12.2026 -
Luciano Gondou CSKA Moscow Aktiv 135 / 131 40% 3 15.12.2026 -
Leandro Godoy CSKA Sofia Aktiv 112 / 123 40% 1 15.12.2026 -
Mees Rijks Bristol Rovers Aktiv 119 / 117 40% 1 15.12.2026 -
Lorent Tolaj Plymouth Argyle Aktiv 111 / 125 40% 1 13.12.2026 -
Fiete Arp OB Aktiv 126 / 130 40% 5 12.12.2026 -
Manfred Ugalde Spartak Moscow Aktiv 130 / 129 40% 2 09.12.2026 -
Morgan Whittaker Middlesbrough Aktiv 117 / 131 40% 1 09.12.2026 -
Filip Bundgaard Brondby Aktiv 108 / 123 40% 3 08.12.2026 -
Alexander Lyng Aalborg Aktiv 118 / 119 40% 1 08.12.2026 -
Krisztofer Horváth Ujpest Aktiv 105 / 112 40% 1 07.12.2026 -
Nathan Ordaz Metalist Aktiv 114 / 114 40% 1 07.12.2026 -
Yaroslav Gladyshev Dinamo Moscow Aktiv 122 / 128 40% 1 06.12.2026 -
Chico Banza Zamalek Aktiv 112 / 112 40% 1 04.12.2026 -
Aidomo Emakhu Oxford United Aktiv 117 / 130 40% 1 04.12.2026 -
Bénie Traoré New York City Aktiv 134 / 121 40% 5 02.12.2026 -
Jens Odgaard Bologna Aktiv 127 / 129 40% 1 30.11.2026 -
David Miculescu FCSB Aktiv 126 / 122 40% 4 28.11.2026 -
Ramiro Ruiz Rodríguez Atlético Tucumán Aktiv 114 / 117 40% 3 28.11.2026 -
Cédric Don Maccabi Haifa Aktiv 108 / 120 40% 1 28.11.2026 -
Youssoufa Moukoko FC Copenhagen Aktiv 118 / 132 40% 3 27.11.2026 Beobachten
Alexis Cuello San Lorenzo Aktiv 128 / 124 40% 2 26.11.2026 -
Eren Aydın Zira Aktiv 108 / 100 40% 1 26.11.2026 -
Tobias Bech AGF Aktiv 137 / 121 40% 7 24.11.2026 -
Bojan Radulović Huddersfield Town Aktiv 104 / 115 40% 1 21.11.2026 -
David Ankeye Zeleznicar Pancevo Aktiv 113 / 117 40% 2 20.11.2026 -
Wessam Abou Ali Columbus Crew Aktiv 142 / 123 40% 4 17.11.2026 -
Sead Hakšabanović Malmo FF Aktiv 125 / 118 40% 4 17.11.2026 -
Michele Šego Hajduk Split Aktiv 113 / 119 40% 1 15.11.2026 -
Bamba Dieng Crvena Zvezda Aktiv 138 / 132 40% 2 13.11.2026 -
Everton Bala Levski Aktiv 125 / 119 40% 2 13.11.2026 -
José Martínes CSKA 1948 Aktiv 100 / 110 40% 1 12.11.2026 -
Keagan Tau Ajax Cape Town Aktiv 90 / 106 40% 1 11.11.2026 -
Elison Makolli Aalborg Aktiv 107 / 117 40% 1 11.11.2026 Mehr Infos nötig
Leonardo Campana New England Revolution Aktiv 126 / 127 40% 1 10.11.2026 -
Ola Brynhildsen Bodo/Glimt Aktiv 130 / 120 40% 3 08.11.2026 -
Kristian Strømland Lien Djurgarden Aktiv 114 / 119 40% 2 08.11.2026 -
Themba Ngcobo SuperSport United Aktiv 119 / 114 40% 4 08.11.2026 -
Alexander Díaz Deportivo Riestra Aktiv 117 / 114 40% 1 06.11.2026 -
Tomás González Piast Aktiv 108 / 119 40% 3 05.11.2026 -
Agustín Módica Gimnasia y Esgrima Aktiv 125 / 126 40% 1 05.11.2026 -
João Simões Sporting CP Aktiv 133 / 135 40% 1 04.11.2026 -
Rafael Navarro St. Louis CITY SC Aktiv 130 / 119 40% 5 31.10.2026 -
Louis Munteanu DC United Aktiv 116 / 131 40% 2 31.10.2026 -
Tomás Chancalay Minnesota United FC Aktiv 135 / 118 40% 4 30.10.2026 -
Denzel Jubitana Neftchi Aktiv 123 / 120 40% 1 30.10.2026 -
Ammar Ramadan DAC Dunajska Streda Aktiv 130 / 126 40% 1 29.10.2026 -
Assad Al Hamlawi Universitatea Craiova Aktiv 123 / 122 40% 4 28.10.2026 -
Kévin Denkey FC Cincinnati Aktiv 116 / 128 40% 1 28.10.2026 -
Dejan Joveljić Seattle Sounders Aktiv 114 / 121 40% 2 24.10.2026 -
Seedy Jatta Sturm Graz Aktiv 112 / 114 40% 2 23.10.2026 -
Ştefan Baiaram Universitatea Craiova Aktiv 128 / 129 40% 1 23.10.2026 -
Martín Ojeda Orlando City Aktiv 124 / 139 40% 2 20.10.2026 -
Jeong Sang-Bin St. Louis CITY SC Aktiv 109 / 117 40% 1 18.10.2026 -
Theo Corbeanu Toronto FC Aktiv 127 / 129 40% 4 16.10.2026 -
Tadeo Allende Inter Miami CF Aktiv 132 / 112 40% 2 13.10.2026 -
Kein Sato FC Tokyo Aktiv 139 / 135 40% 1 10.10.2026 -
Armindo Sieb Los Angeles Football Club Aktiv 119 / 118 40% 1 07.10.2026 -
Max Fenger IFK Goteborg Aktiv 130 / 123 40% 1 06.10.2026 -
Kevin Kelsy Portland Timbers Aktiv 108 / 115 40% 1 27.09.2026 -
Daniel Karlsbakk Sarpsborg 08 Aktiv 118 / 124 40% 1 24.09.2026 -
Ibrahim Aliyu Houston Dynamo Aktiv 123 / 116 40% 1 23.09.2026 -
Jonás Luna Santa Clara Aktiv 119 / 115 40% 1 21.09.2026 -
Evidence Makgopa Orlando Pirates Aktiv 99 / 109 40% 1 21.09.2026 -
Kelvin Yeboah Minnesota United FC Aktiv 128 / 133 40% 2 20.09.2026 -
Etiosa Ighodaro Kaizer Chiefs Aktiv 123 / 113 40% 1 20.09.2026 -
Nəriman Axundzadə Columbus Crew Aktiv 108 / 119 40% 1 20.09.2026 -
Matheus Nascimento FC Dallas Aktiv 104 / 113 40% 1 18.09.2026 -
Indiana Vassilev Philadelphia Union Aktiv 129 / 125 40% 1 17.09.2026 -
Alberto Soro Dinamo Bucharest Aktiv 109 / 117 40% 1 16.09.2026 -
Milan Iloski Philadelphia Union Aktiv 125 / 115 40% 1 11.09.2026 -
Ezekiel Kwame Alladoh Philadelphia Union Aktiv 99 / 126 40% 1 11.09.2026 -
Marko Divković Brondby Aktiv 123 / 113 40% 1 07.09.2026 -
Rasmus Falk OB Aktiv 129 / 128 65% 1 31.08.2026 Befürworten
Furkan Demir Rapid Wien Aktiv 107 / 121 40% 1 31.08.2026 -
Philippe Ndinga Philadelphia Union Aktiv 112 / 128 40% 1 24.08.2026 -
Rasmus Carstensen AGF Aktiv 123 / 121 40% 1 04.08.2026 -
Erik Thommy LA Galaxy Aktiv 121 / 114 40% 1 01.08.2026 -
Dwight McNeil Crystal Palace Aktiv 147 / 133 40% 1 01.08.2026 -